sensor_id;sensor_type;location;lat;lon;timestamp;temperature;humidity
3275;DHT22;1649;53.672;10.064;2024-02-16T00:01:58;10.90;99.90
3275;DHT22;1649;53.672;10.064;2024-02-16T00:04:23;10.90;99.90
3275;DHT22;1649;53.672;10.064;2024-02-16T00:06:49;10.90;99.90
3275;DHT22;1649;53.672;10.064;2024-02-16T00:09:14;10.90;99.90
3275;DHT22;1649;53.672;10.064;2024-02-16T00:11:40;10.90;99.90
3275;DHT22;1649;53.672;10.064;2024-02-16T00:14:05;10.80;99.90
3275;DHT22;1649;53.672;10.064;2024-02-16T00:16:31;10.90;99.90
3275;DHT22;1649;53.672;10.064;2024-02-16T00:18:56;10.80;99.90
3275;DHT22;1649;53.672;10.064;2024-02-16T00:21:22;10.80;99.90
3275;DHT22;1649;53.672;10.064;2024-02-16T00:23:47;10.70;99.90
3275;DHT22;1649;53.672;10.064;2024-02-16T00:26:12;10.80;99.90
3275;DHT22;1649;53.672;10.064;2024-02-16T00:28:38;10.80;99.90
3275;DHT22;1649;53.672;10.064;2024-02-16T00:31:04;10.70;99.90
3275;DHT22;1649;53.672;10.064;2024-02-16T00:33:31;10.70;99.90
3275;DHT22;1649;53.672;10.064;2024-02-16T00:35:56;10.70;99.90
3275;DHT22;1649;53.672;10.064;2024-02-16T00:38:22;10.70;99.90
3275;DHT22;1649;53.672;10.064;2024-02-16T00:40:48;10.60;99.90
3275;DHT22;1649;53.672;10.064;2024-02-16T00:43:15;10.60;99.90
3275;DHT22;1649;53.672;10.064;2024-02-16T00:45:41;10.60;99.90
3275;DHT22;1649;53.672;10.064;2024-02-16T00:48:09;10.70;99.90
3275;DHT22;1649;53.672;10.064;2024-02-16T00:50:35;10.60;99.90
3275;DHT22;1649;53.672;10.064;2024-02-16T00:53:00;10.70;99.90
3275;DHT22;1649;53.672;10.064;2024-02-16T00:55:26;10.70;99.90
3275;DHT22;1649;53.672;10.064;2024-02-16T00:57:51;10.70;99.90
3275;DHT22;1649;53.672;10.064;2024-02-16T01:00:17;10.70;99.90
3275;DHT22;1649;53.672;10.064;2024-02-16T01:02:44;10.70;99.90
3275;DHT22;1649;53.672;10.064;2024-02-16T01:05:10;10.70;99.90
3275;DHT22;1649;53.672;10.064;2024-02-16T01:07:36;10.70;99.90
3275;DHT22;1649;53.672;10.064;2024-02-16T01:10:02;10.70;99.90
3275;DHT22;1649;53.672;10.064;2024-02-16T01:12:28;10.70;99.90
3275;DHT22;1649;53.672;10.064;2024-02-16T01:14:56;10.60;99.90
3275;DHT22;1649;53.672;10.064;2024-02-16T01:17:21;10.50;99.90
3275;DHT22;1649;53.672;10.064;2024-02-16T01:19:47;10.50;99.90
3275;DHT22;1649;53.672;10.064;2024-02-16T01:22:12;10.60;99.90
3275;DHT22;1649;53.672;10.064;2024-02-16T01:24:38;10.50;99.90
3275;DHT22;1649;53.672;10.064;2024-02-16T01:27:04;10.40;99.90
3275;DHT22;1649;53.672;10.064;2024-02-16T01:29:29;10.40;99.90
3275;DHT22;1649;53.672;10.064;2024-02-16T01:31:55;10.40;99.90
3275;DHT22;1649;53.672;10.064;2024-02-16T01:34:20;10.30;99.90
3275;DHT22;1649;53.672;10.064;2024-02-16T01:36:46;10.40;99.90
3275;DHT22;1649;53.672;10.064;2024-02-16T01:39:11;10.40;99.90
3275;DHT22;1649;53.672;10.064;2024-02-16T01:41:40;10.40;99.90
3275;DHT22;1649;53.672;10.064;2024-02-16T01:44:06;10.30;99.90
3275;DHT22;1649;53.672;10.064;2024-02-16T01:46:33;10.30;99.90
3275;DHT22;1649;53.672;10.064;2024-02-16T01:48:59;10.30;99.90
3275;DHT22;1649;53.672;10.064;2024-02-16T01:51:25;10.40;99.90
3275;DHT22;1649;53.672;10.064;2024-02-16T01:53:51;10.40;99.90
3275;DHT22;1649;53.672;10.064;2024-02-16T01:56:18;10.30;99.90
3275;DHT22;1649;53.672;10.064;2024-02-16T01:58:46;10.30;99.90
3275;DHT22;1649;53.672;10.064;2024-02-16T02:01:11;10.30;99.90
3275;DHT22;1649;53.672;10.064;2024-02-16T02:03:37;10.30;99.90
3275;DHT22;1649;53.672;10.064;2024-02-16T02:06:02;10.30;99.90
3275;DHT22;1649;53.672;10.064;2024-02-16T02:08:28;10.30;99.90
3275;DHT22;1649;53.672;10.064;2024-02-16T02:10:53;10.30;99.90
3275;DHT22;1649;53.672;10.064;2024-02-16T02:13:19;10.30;99.90
3275;DHT22;1649;53.672;10.064;2024-02-16T02:15:47;10.30;99.90
3275;DHT22;1649;53.672;10.064;2024-02-16T02:18:12;10.30;99.90
3275;DHT22;1649;53.672;10.064;2024-02-16T02:20:38;10.30;99.90
3275;DHT22;1649;53.672;10.064;2024-02-16T02:23:04;10.30;99.90
3275;DHT22;1649;53.672;10.064;2024-02-16T02:25:29;10.40;99.90
3275;DHT22;1649;53.672;10.064;2024-02-16T02:27:55;10.30;99.90
3275;DHT22;1649;53.672;10.064;2024-02-16T02:30:21;10.30;99.90
3275;DHT22;1649;53.672;10.064;2024-02-16T02:32:47;10.30;99.90
3275;DHT22;1649;53.672;10.064;2024-02-16T02:35:14;10.30;99.90
3275;DHT22;1649;53.672;10.064;2024-02-16T02:37:40;10.30;99.90
3275;DHT22;1649;53.672;10.064;2024-02-16T02:40:07;10.30;99.90
3275;DHT22;1649;53.672;10.064;2024-02-16T02:42:34;10.30;99.90
3275;DHT22;1649;53.672;10.064;2024-02-16T02:44:59;10.30;99.90
3275;DHT22;1649;53.672;10.064;2024-02-16T02:47:25;10.30;99.90
3275;DHT22;1649;53.672;10.064;2024-02-16T02:49:50;10.20;99.90
3275;DHT22;1649;53.672;10.064;2024-02-16T02:52:16;10.20;99.90
3275;DHT22;1649;53.672;10.064;2024-02-16T02:54:42;10.20;99.90
3275;DHT22;1649;53.672;10.064;2024-02-16T02:57:08;10.20;99.90
3275;DHT22;1649;53.672;10.064;2024-02-16T02:59:33;10.20;99.90
3275;DHT22;1649;53.672;10.064;2024-02-16T03:01:59;10.10;99.90
3275;DHT22;1649;53.672;10.064;2024-02-16T03:04:24;10.10;99.90
3275;DHT22;1649;53.672;10.064;2024-02-16T03:06:52;10.10;99.90
3275;DHT22;1649;53.672;10.064;2024-02-16T03:09:18;10.10;99.90
3275;DHT22;1649;53.672;10.064;2024-02-16T03:11:44;10.10;99.90
3275;DHT22;1649;53.672;10.064;2024-02-16T03:14:09;10.10;99.90
3275;DHT22;1649;53.672;10.064;2024-02-16T03:16:35;10.10;99.90
3275;DHT22;1649;53.672;10.064;2024-02-16T03:19:00;10.10;99.90
3275;DHT22;1649;53.672;10.064;2024-02-16T03:21:26;10.20;99.90
3275;DHT22;1649;53.672;10.064;2024-02-16T03:23:51;10.20;99.90
3275;DHT22;1649;53.672;10.064;2024-02-16T03:26:18;10.10;99.90
3275;DHT22;1649;53.672;10.064;2024-02-16T03:28:44;10.20;99.90
3275;DHT22;1649;53.672;10.064;2024-02-16T03:31:19;10.20;99.90
3275;DHT22;1649;53.672;10.064;2024-02-16T03:33:45;10.20;99.90
3275;DHT22;1649;53.672;10.064;2024-02-16T03:36:11;10.10;99.90
3275;DHT22;1649;53.672;10.064;2024-02-16T03:38:46;10.20;99.90
3275;DHT22;1649;53.672;10.064;2024-02-16T03:41:18;10.20;99.90
3275;DHT22;1649;53.672;10.064;2024-02-16T03:43:44;10.20;99.90
3275;DHT22;1649;53.672;10.064;2024-02-16T03:46:10;10.20;99.90
3275;DHT22;1649;53.672;10.064;2024-02-16T03:48:35;10.30;99.90
3275;DHT22;1649;53.672;10.064;2024-02-16T03:51:01;10.30;99.90
3275;DHT22;1649;53.672;10.064;2024-02-16T03:53:28;10.30;99.90
3275;DHT22;1649;53.672;10.064;2024-02-16T03:55:54;10.20;99.90
3275;DHT22;1649;53.672;10.064;2024-02-16T03:58:19;10.20;99.90
3275;DHT22;1649;53.672;10.064;2024-02-16T04:00:45;10.30;99.90
3275;DHT22;1649;53.672;10.064;2024-02-16T04:03:10;10.30;99.90
3275;DHT22;1649;53.672;10.064;2024-02-16T04:05:38;10.30;99.90
3275;DHT22;1649;53.672;10.064;2024-02-16T04:08:04;10.30;99.90
3275;DHT22;1649;53.672;10.064;2024-02-16T04:10:31;10.30;99.90
3275;DHT22;1649;53.672;10.064;2024-02-16T04:12:57;10.30;99.90
3275;DHT22;1649;53.672;10.064;2024-02-16T04:15:22;10.30;99.90
3275;DHT22;1649;53.672;10.064;2024-02-16T04:17:48;10.30;99.90
3275;DHT22;1649;53.672;10.064;2024-02-16T04:20:15;10.30;99.90
3275;DHT22;1649;53.672;10.064;2024-02-16T04:22:41;10.40;99.90
3275;DHT22;1649;53.672;10.064;2024-02-16T04:25:07;10.40;99.90
3275;DHT22;1649;53.672;10.064;2024-02-16T04:27:34;10.40;99.90
3275;DHT22;1649;53.672;10.064;2024-02-16T04:30:00;10.30;99.90
3275;DHT22;1649;53.672;10.064;2024-02-16T04:32:25;10.40;99.90
3275;DHT22;1649;53.672;10.064;2024-02-16T04:34:51;10.40;99.90
3275;DHT22;1649;53.672;10.064;2024-02-16T04:37:24;10.40;99.90
3275;DHT22;1649;53.672;10.064;2024-02-16T04:39:51;10.40;99.90
3275;DHT22;1649;53.672;10.064;2024-02-16T04:42:16;10.40;99.90
3275;DHT22;1649;53.672;10.064;2024-02-16T04:44:42;10.40;99.90
3275;DHT22;1649;53.672;10.064;2024-02-16T04:47:08;10.40;99.90
3275;DHT22;1649;53.672;10.064;2024-02-16T04:49:34;10.40;99.90
3275;DHT22;1649;53.672;10.064;2024-02-16T04:52:00;10.30;99.90
3275;DHT22;1649;53.672;10.064;2024-02-16T04:54:25;10.30;99.90
3275;DHT22;1649;53.672;10.064;2024-02-16T04:56:51;10.30;99.90
3275;DHT22;1649;53.672;10.064;2024-02-16T04:59:16;10.40;99.90
3275;DHT22;1649;53.672;10.064;2024-02-16T05:01:45;10.30;99.90
3275;DHT22;1649;53.672;10.064;2024-02-16T05:04:11;10.40;99.90
3275;DHT22;1649;53.672;10.064;2024-02-16T05:06:45;10.40;99.90
3275;DHT22;1649;53.672;10.064;2024-02-16T05:09:12;10.40;99.90
3275;DHT22;1649;53.672;10.064;2024-02-16T05:11:37;10.40;99.90
3275;DHT22;1649;53.672;10.064;2024-02-16T05:14:03;10.30;99.90
3275;DHT22;1649;53.672;10.064;2024-02-16T05:16:28;10.30;99.90
3275;DHT22;1649;53.672;10.064;2024-02-16T05:18:55;10.30;99.90
3275;DHT22;1649;53.672;10.064;2024-02-16T05:21:21;10.30;99.90
3275;DHT22;1649;53.672;10.064;2024-02-16T05:23:47;10.30;99.90
3275;DHT22;1649;53.672;10.064;2024-02-16T05:26:13;10.30;99.90
3275;DHT22;1649;53.672;10.064;2024-02-16T05:28:38;10.30;99.90
3275;DHT22;1649;53.672;10.064;2024-02-16T05:31:14;10.30;99.90
3275;DHT22;1649;53.672;10.064;2024-02-16T05:33:50;10.20;99.90
3275;DHT22;1649;53.672;10.064;2024-02-16T05:36:20;10.20;99.90
3275;DHT22;1649;53.672;10.064;2024-02-16T05:38:49;10.20;99.90
3275;DHT22;1649;53.672;10.064;2024-02-16T05:41:16;10.20;99.90
3275;DHT22;1649;53.672;10.064;2024-02-16T05:43:43;10.10;99.90
3275;DHT22;1649;53.672;10.064;2024-02-16T05:46:13;10.20;99.90
3275;DHT22;1649;53.672;10.064;2024-02-16T05:48:39;10.20;99.90
3275;DHT22;1649;53.672;10.064;2024-02-16T05:51:05;10.10;99.90
3275;DHT22;1649;53.672;10.064;2024-02-16T05:53:35;10.10;99.90
3275;DHT22;1649;53.672;10.064;2024-02-16T05:56:01;10.10;99.90
3275;DHT22;1649;53.672;10.064;2024-02-16T05:58:27;10.10;99.90
3275;DHT22;1649;53.672;10.064;2024-02-16T06:00:53;10.10;99.90
3275;DHT22;1649;53.672;10.064;2024-02-16T06:03:20;10.10;99.90
3275;DHT22;1649;53.672;10.064;2024-02-16T06:05:45;10.00;99.90
3275;DHT22;1649;53.672;10.064;2024-02-16T06:08:11;10.10;99.90
3275;DHT22;1649;53.672;10.064;2024-02-16T06:10:37;10.00;99.90
3275;DHT22;1649;53.672;10.064;2024-02-16T06:13:02;10.00;99.90
3275;DHT22;1649;53.672;10.064;2024-02-16T06:15:28;10.00;99.90
3275;DHT22;1649;53.672;10.064;2024-02-16T06:17:53;10.00;99.90
3275;DHT22;1649;53.672;10.064;2024-02-16T06:20:19;9.90;99.90
3275;DHT22;1649;53.672;10.064;2024-02-16T06:22:45;9.90;99.90
3275;DHT22;1649;53.672;10.064;2024-02-16T06:25:10;9.90;99.90
3275;DHT22;1649;53.672;10.064;2024-02-16T06:27:36;9.90;99.90
3275;DHT22;1649;53.672;10.064;2024-02-16T06:30:03;9.90;99.90
3275;DHT22;1649;53.672;10.064;2024-02-16T06:32:29;9.90;99.90
3275;DHT22;1649;53.672;10.064;2024-02-16T06:34:56;9.80;99.90
3275;DHT22;1649;53.672;10.064;2024-02-16T06:37:22;9.70;99.90
3275;DHT22;1649;53.672;10.064;2024-02-16T06:39:47;9.70;99.90
3275;DHT22;1649;53.672;10.064;2024-02-16T06:42:13;9.70;99.90
3275;DHT22;1649;53.672;10.064;2024-02-16T06:44:39;9.70;99.90
3275;DHT22;1649;53.672;10.064;2024-02-16T06:47:05;9.70;99.90
3275;DHT22;1649;53.672;10.064;2024-02-16T06:49:31;9.70;99.90
3275;DHT22;1649;53.672;10.064;2024-02-16T06:51:57;9.70;99.90
3275;DHT22;1649;53.672;10.064;2024-02-16T06:54:22;9.70;99.90
3275;DHT22;1649;53.672;10.064;2024-02-16T06:56:49;9.60;99.90
3275;DHT22;1649;53.672;10.064;2024-02-16T06:59:17;9.60;99.90
3275;DHT22;1649;53.672;10.064;2024-02-16T07:01:42;9.60;99.90
3275;DHT22;1649;53.672;10.064;2024-02-16T07:04:08;9.60;99.90
3275;DHT22;1649;53.672;10.064;2024-02-16T07:06:34;9.60;99.90
3275;DHT22;1649;53.672;10.064;2024-02-16T07:09:00;9.50;99.90
3275;DHT22;1649;53.672;10.064;2024-02-16T07:11:25;9.60;99.90
3275;DHT22;1649;53.672;10.064;2024-02-16T07:13:51;9.50;99.90
3275;DHT22;1649;53.672;10.064;2024-02-16T07:16:16;9.60;99.90
3275;DHT22;1649;53.672;10.064;2024-02-16T07:18:43;9.60;99.90
3275;DHT22;1649;53.672;10.064;2024-02-16T07:21:09;9.60;99.90
3275;DHT22;1649;53.672;10.064;2024-02-16T07:23:34;9.60;99.90
3275;DHT22;1649;53.672;10.064;2024-02-16T07:26:00;9.70;99.90
3275;DHT22;1649;53.672;10.064;2024-02-16T07:28:27;9.70;99.90
3275;DHT22;1649;53.672;10.064;2024-02-16T07:30:53;9.70;99.90
3275;DHT22;1649;53.672;10.064;2024-02-16T07:33:18;9.80;99.90
3275;DHT22;1649;53.672;10.064;2024-02-16T07:35:44;9.80;99.90
3275;DHT22;1649;53.672;10.064;2024-02-16T07:38:10;9.90;99.90
3275;DHT22;1649;53.672;10.064;2024-02-16T07:40:35;10.00;99.90
3275;DHT22;1649;53.672;10.064;2024-02-16T07:43:01;10.00;99.90
3275;DHT22;1649;53.672;10.064;2024-02-16T07:45:26;10.20;99.90
3275;DHT22;1649;53.672;10.064;2024-02-16T07:47:52;10.30;99.90
3275;DHT22;1649;53.672;10.064;2024-02-16T07:50:21;10.40;99.90
3275;DHT22;1649;53.672;10.064;2024-02-16T07:52:48;10.50;99.90
3275;DHT22;1649;53.672;10.064;2024-02-16T07:55:14;10.50;99.90
3275;DHT22;1649;53.672;10.064;2024-02-16T07:57:40;10.50;99.90
3275;DHT22;1649;53.672;10.064;2024-02-16T08:00:05;10.50;99.90
3275;DHT22;1649;53.672;10.064;2024-02-16T08:02:32;10.60;99.90
3275;DHT22;1649;53.672;10.064;2024-02-16T08:04:58;10.60;99.90
3275;DHT22;1649;53.672;10.064;2024-02-16T08:07:24;10.80;99.90
3275;DHT22;1649;53.672;10.064;2024-02-16T08:09:49;10.80;99.90
3275;DHT22;1649;53.672;10.064;2024-02-16T08:12:15;11.00;99.90
3275;DHT22;1649;53.672;10.064;2024-02-16T08:14:41;11.00;99.90
3275;DHT22;1649;53.672;10.064;2024-02-16T08:17:07;11.10;99.90
3275;DHT22;1649;53.672;10.064;2024-02-16T08:19:37;11.20;99.90
3275;DHT22;1649;53.672;10.064;2024-02-16T08:22:04;11.30;99.90
3275;DHT22;1649;53.672;10.064;2024-02-16T08:24:34;11.50;99.90
3275;DHT22;1649;53.672;10.064;2024-02-16T08:27:00;11.50;99.90
3275;DHT22;1649;53.672;10.064;2024-02-16T08:29:25;11.70;99.90
3275;DHT22;1649;53.672;10.064;2024-02-16T08:31:52;11.80;99.90
3275;DHT22;1649;53.672;10.064;2024-02-16T08:34:17;11.80;99.90
3275;DHT22;1649;53.672;10.064;2024-02-16T08:36:49;11.80;99.90
3275;DHT22;1649;53.672;10.064;2024-02-16T08:39:16;11.80;99.90
3275;DHT22;1649;53.672;10.064;2024-02-16T08:41:42;11.70;99.90
3275;DHT22;1649;53.672;10.064;2024-02-16T08:44:09;11.60;99.90
3275;DHT22;1649;53.672;10.064;2024-02-16T08:46:36;11.60;99.90
3275;DHT22;1649;53.672;10.064;2024-02-16T08:49:02;11.70;99.90
3275;DHT22;1649;53.672;10.064;2024-02-16T08:51:27;11.70;99.90
3275;DHT22;1649;53.672;10.064;2024-02-16T08:53:54;11.70;99.90
3275;DHT22;1649;53.672;10.064;2024-02-16T08:56:19;11.60;99.90
3275;DHT22;1649;53.672;10.064;2024-02-16T08:58:44;11.70;99.90
3275;DHT22;1649;53.672;10.064;2024-02-16T09:01:10;11.70;99.90
3275;DHT22;1649;53.672;10.064;2024-02-16T09:03:35;11.70;99.90
3275;DHT22;1649;53.672;10.064;2024-02-16T09:06:04;11.70;99.90
3275;DHT22;1649;53.672;10.064;2024-02-16T09:08:29;11.80;99.90
3275;DHT22;1649;53.672;10.064;2024-02-16T09:11:02;11.80;99.90
3275;DHT22;1649;53.672;10.064;2024-02-16T09:13:33;11.80;99.90
3275;DHT22;1649;53.672;10.064;2024-02-16T09:15:59;11.80;99.90
3275;DHT22;1649;53.672;10.064;2024-02-16T09:18:25;11.80;99.90
3275;DHT22;1649;53.672;10.064;2024-02-16T09:20:51;11.80;99.90
3275;DHT22;1649;53.672;10.064;2024-02-16T09:23:16;11.90;99.90
3275;DHT22;1649;53.672;10.064;2024-02-16T09:25:42;11.80;99.90
3275;DHT22;1649;53.672;10.064;2024-02-16T09:28:09;11.70;99.90
3275;DHT22;1649;53.672;10.064;2024-02-16T09:30:34;11.80;99.90
3275;DHT22;1649;53.672;10.064;2024-02-16T09:32:59;11.80;99.90
3275;DHT22;1649;53.672;10.064;2024-02-16T09:35:25;11.80;99.90
3275;DHT22;1649;53.672;10.064;2024-02-16T09:37:50;11.90;99.90
3275;DHT22;1649;53.672;10.064;2024-02-16T09:40:16;11.90;99.90
3275;DHT22;1649;53.672;10.064;2024-02-16T09:42:48;11.90;99.90
3275;DHT22;1649;53.672;10.064;2024-02-16T09:45:15;12.00;99.90
3275;DHT22;1649;53.672;10.064;2024-02-16T09:47:43;12.00;99.90
3275;DHT22;1649;53.672;10.064;2024-02-16T09:50:09;12.00;99.90
3275;DHT22;1649;53.672;10.064;2024-02-16T09:52:36;12.00;99.90
3275;DHT22;1649;53.672;10.064;2024-02-16T09:55:02;12.10;99.90
3275;DHT22;1649;53.672;10.064;2024-02-16T09:57:27;12.10;99.90
3275;DHT22;1649;53.672;10.064;2024-02-16T09:59:53;12.10;99.90
3275;DHT22;1649;53.672;10.064;2024-02-16T10:02:18;12.20;99.90
3275;DHT22;1649;53.672;10.064;2024-02-16T10:04:44;12.10;99.90
3275;DHT22;1649;53.672;10.064;2024-02-16T10:07:09;12.10;99.90
3275;DHT22;1649;53.672;10.064;2024-02-16T10:09:35;12.10;99.90
3275;DHT22;1649;53.672;10.064;2024-02-16T10:12:01;12.20;99.90
3275;DHT22;1649;53.672;10.064;2024-02-16T10:14:26;12.20;99.90
3275;DHT22;1649;53.672;10.064;2024-02-16T10:17:00;12.30;99.90
3275;DHT22;1649;53.672;10.064;2024-02-16T10:19:27;12.40;99.90
3275;DHT22;1649;53.672;10.064;2024-02-16T10:21:53;12.50;99.90
3275;DHT22;1649;53.672;10.064;2024-02-16T10:24:21;12.60;99.90
3275;DHT22;1649;53.672;10.064;2024-02-16T10:26:47;12.70;99.90
3275;DHT22;1649;53.672;10.064;2024-02-16T10:29:17;12.70;99.90
3275;DHT22;1649;53.672;10.064;2024-02-16T10:31:45;12.80;99.90
3275;DHT22;1649;53.672;10.064;2024-02-16T10:34:10;12.80;99.90
3275;DHT22;1649;53.672;10.064;2024-02-16T10:36:37;13.00;99.90
3275;DHT22;1649;53.672;10.064;2024-02-16T10:39:04;13.10;99.90
3275;DHT22;1649;53.672;10.064;2024-02-16T10:41:37;13.20;99.90
3275;DHT22;1649;53.672;10.064;2024-02-16T10:44:03;13.30;99.90
3275;DHT22;1649;53.672;10.064;2024-02-16T10:46:30;13.50;99.90
3275;DHT22;1649;53.672;10.064;2024-02-16T10:48:56;13.40;99.90
3275;DHT22;1649;53.672;10.064;2024-02-16T10:51:42;13.50;99.90
3275;DHT22;1649;53.672;10.064;2024-02-16T10:54:10;13.40;99.90
3275;DHT22;1649;53.672;10.064;2024-02-16T10:56:37;13.30;99.90
3275;DHT22;1649;53.672;10.064;2024-02-16T10:59:04;13.20;99.90
3275;DHT22;1649;53.672;10.064;2024-02-16T11:01:48;13.20;99.90
3275;DHT22;1649;53.672;10.064;2024-02-16T11:04:24;13.20;99.90
3275;DHT22;1649;53.672;10.064;2024-02-16T11:06:53;13.20;99.90
3275;DHT22;1649;53.672;10.064;2024-02-16T11:09:28;13.30;99.90
3275;DHT22;1649;53.672;10.064;2024-02-16T11:11:58;13.40;99.90
3275;DHT22;1649;53.672;10.064;2024-02-16T11:14:24;13.60;99.90
3275;DHT22;1649;53.672;10.064;2024-02-16T11:16:53;13.70;99.90
3275;DHT22;1649;53.672;10.064;2024-02-16T11:19:20;13.80;99.90
3275;DHT22;1649;53.672;10.064;2024-02-16T11:22:02;13.80;99.90
3275;DHT22;1649;53.672;10.064;2024-02-16T11:24:31;13.80;99.90
3275;DHT22;1649;53.672;10.064;2024-02-16T11:26:57;13.90;99.90
3275;DHT22;1649;53.672;10.064;2024-02-16T11:29:25;14.10;99.90
3275;DHT22;1649;53.672;10.064;2024-02-16T11:31:50;14.20;99.90
3275;DHT22;1649;53.672;10.064;2024-02-16T11:34:23;14.30;99.90
3275;DHT22;1649;53.672;10.064;2024-02-16T11:36:48;14.30;99.90
3275;DHT22;1649;53.672;10.064;2024-02-16T11:39:14;14.40;99.90
3275;DHT22;1649;53.672;10.064;2024-02-16T11:41:42;14.40;99.90
3275;DHT22;1649;53.672;10.064;2024-02-16T11:44:08;14.40;99.90
3275;DHT22;1649;53.672;10.064;2024-02-16T11:46:34;14.40;99.90
3275;DHT22;1649;53.672;10.064;2024-02-16T11:49:05;14.40;99.90
3275;DHT22;1649;53.672;10.064;2024-02-16T11:51:31;14.40;99.90
3275;DHT22;1649;53.672;10.064;2024-02-16T11:53:58;14.40;99.90
3275;DHT22;1649;53.672;10.064;2024-02-16T11:56:25;14.30;99.90
3275;DHT22;1649;53.672;10.064;2024-02-16T11:58:51;14.30;99.90
3275;DHT22;1649;53.672;10.064;2024-02-16T12:01:17;14.30;99.90
3275;DHT22;1649;53.672;10.064;2024-02-16T12:03:42;14.30;99.90
3275;DHT22;1649;53.672;10.064;2024-02-16T12:06:08;14.40;99.90
3275;DHT22;1649;53.672;10.064;2024-02-16T12:08:34;14.50;99.90
3275;DHT22;1649;53.672;10.064;2024-02-16T12:11:01;14.60;99.90
3275;DHT22;1649;53.672;10.064;2024-02-16T12:13:27;14.70;99.90
3275;DHT22;1649;53.672;10.064;2024-02-16T12:15:53;14.80;99.90
3275;DHT22;1649;53.672;10.064;2024-02-16T12:18:22;14.90;99.90
3275;DHT22;1649;53.672;10.064;2024-02-16T12:21:04;14.90;99.90
3275;DHT22;1649;53.672;10.064;2024-02-16T12:23:33;14.80;99.90
3275;DHT22;1649;53.672;10.064;2024-02-16T12:25:59;14.70;99.90
3275;DHT22;1649;53.672;10.064;2024-02-16T12:28:27;14.70;99.90
3275;DHT22;1649;53.672;10.064;2024-02-16T12:30:58;14.60;99.90
3275;DHT22;1649;53.672;10.064;2024-02-16T12:33:24;14.60;99.90
3275;DHT22;1649;53.672;10.064;2024-02-16T12:35:50;14.60;99.90
3275;DHT22;1649;53.672;10.064;2024-02-16T12:38:16;14.70;99.90
3275;DHT22;1649;53.672;10.064;2024-02-16T12:40:47;14.70;99.90
3275;DHT22;1649;53.672;10.064;2024-02-16T12:43:13;14.80;99.90
3275;DHT22;1649;53.672;10.064;2024-02-16T12:45:39;14.80;99.90
3275;DHT22;1649;53.672;10.064;2024-02-16T12:48:05;14.80;99.90
3275;DHT22;1649;53.672;10.064;2024-02-16T12:50:31;14.70;99.90
3275;DHT22;1649;53.672;10.064;2024-02-16T12:52:57;14.60;99.90
3275;DHT22;1649;53.672;10.064;2024-02-16T12:55:23;14.60;99.90
3275;DHT22;1649;53.672;10.064;2024-02-16T12:57:49;14.60;99.90
3275;DHT22;1649;53.672;10.064;2024-02-16T13:00:16;14.60;99.90
3275;DHT22;1649;53.672;10.064;2024-02-16T13:02:42;14.70;99.90
3275;DHT22;1649;53.672;10.064;2024-02-16T13:05:07;14.60;99.90
3275;DHT22;1649;53.672;10.064;2024-02-16T13:07:33;14.60;99.90
3275;DHT22;1649;53.672;10.064;2024-02-16T13:09:59;14.50;99.90
3275;DHT22;1649;53.672;10.064;2024-02-16T13:12:24;14.40;99.90
3275;DHT22;1649;53.672;10.064;2024-02-16T13:14:50;14.30;99.90
3275;DHT22;1649;53.672;10.064;2024-02-16T13:17:15;14.20;99.90
3275;DHT22;1649;53.672;10.064;2024-02-16T13:19:42;14.10;99.90
3275;DHT22;1649;53.672;10.064;2024-02-16T13:22:07;13.90;99.90
3275;DHT22;1649;53.672;10.064;2024-02-16T13:24:33;13.90;99.90
3275;DHT22;1649;53.672;10.064;2024-02-16T13:26:59;13.80;99.90
3275;DHT22;1649;53.672;10.064;2024-02-16T13:29:24;13.90;99.90
3275;DHT22;1649;53.672;10.064;2024-02-16T13:31:50;13.90;99.90
3275;DHT22;1649;53.672;10.064;2024-02-16T13:34:15;13.90;99.90
3275;DHT22;1649;53.672;10.064;2024-02-16T13:36:41;13.90;99.90
3275;DHT22;1649;53.672;10.064;2024-02-16T13:39:07;13.90;99.90
3275;DHT22;1649;53.672;10.064;2024-02-16T13:41:33;13.90;99.90
3275;DHT22;1649;53.672;10.064;2024-02-16T13:43:59;13.90;99.90
3275;DHT22;1649;53.672;10.064;2024-02-16T13:46:24;14.00;99.90
3275;DHT22;1649;53.672;10.064;2024-02-16T13:48:50;14.00;99.90
3275;DHT22;1649;53.672;10.064;2024-02-16T13:51:15;14.00;99.90
3275;DHT22;1649;53.672;10.064;2024-02-16T13:53:41;14.00;99.90
3275;DHT22;1649;53.672;10.064;2024-02-16T13:56:06;13.90;99.90
3275;DHT22;1649;53.672;10.064;2024-02-16T13:58:32;13.90;99.90
3275;DHT22;1649;53.672;10.064;2024-02-16T14:00:59;13.80;99.90
3275;DHT22;1649;53.672;10.064;2024-02-16T14:03:25;13.70;99.90
3275;DHT22;1649;53.672;10.064;2024-02-16T14:05:51;13.70;99.90
3275;DHT22;1649;53.672;10.064;2024-02-16T14:08:17;13.70;99.90
3275;DHT22;1649;53.672;10.064;2024-02-16T14:10:43;13.80;99.90
3275;DHT22;1649;53.672;10.064;2024-02-16T14:13:08;13.90;99.90
3275;DHT22;1649;53.672;10.064;2024-02-16T14:15:35;13.90;99.90
3275;DHT22;1649;53.672;10.064;2024-02-16T14:18:00;13.90;99.90
3275;DHT22;1649;53.672;10.064;2024-02-16T14:20:26;13.90;99.90
3275;DHT22;1649;53.672;10.064;2024-02-16T14:22:51;13.90;99.90
3275;DHT22;1649;53.672;10.064;2024-02-16T14:25:17;14.00;99.90
3275;DHT22;1649;53.672;10.064;2024-02-16T14:27:44;13.90;99.90
3275;DHT22;1649;53.672;10.064;2024-02-16T14:30:11;14.00;99.90
3275;DHT22;1649;53.672;10.064;2024-02-16T14:32:37;13.90;99.90
3275;DHT22;1649;53.672;10.064;2024-02-16T14:35:02;13.90;99.90
3275;DHT22;1649;53.672;10.064;2024-02-16T14:37:28;13.90;99.90
3275;DHT22;1649;53.672;10.064;2024-02-16T14:39:54;13.90;99.90
3275;DHT22;1649;53.672;10.064;2024-02-16T14:42:24;13.80;99.90
3275;DHT22;1649;53.672;10.064;2024-02-16T14:44:50;13.70;99.90
3275;DHT22;1649;53.672;10.064;2024-02-16T14:47:16;13.50;99.90
3275;DHT22;1649;53.672;10.064;2024-02-16T14:49:42;13.50;99.90
3275;DHT22;1649;53.672;10.064;2024-02-16T14:52:07;13.50;99.90
3275;DHT22;1649;53.672;10.064;2024-02-16T14:54:34;13.40;99.90
3275;DHT22;1649;53.672;10.064;2024-02-16T14:57:00;13.30;99.90
3275;DHT22;1649;53.672;10.064;2024-02-16T14:59:26;13.10;99.90
3275;DHT22;1649;53.672;10.064;2024-02-16T15:01:52;13.00;99.90
3275;DHT22;1649;53.672;10.064;2024-02-16T15:04:18;12.80;99.90
3275;DHT22;1649;53.672;10.064;2024-02-16T15:06:43;12.70;99.90
3275;DHT22;1649;53.672;10.064;2024-02-16T15:09:09;12.70;99.90
3275;DHT22;1649;53.672;10.064;2024-02-16T15:11:35;12.60;99.90
3275;DHT22;1649;53.672;10.064;2024-02-16T15:14:01;12.60;99.90
3275;DHT22;1649;53.672;10.064;2024-02-16T15:16:27;12.50;99.90
3275;DHT22;1649;53.672;10.064;2024-02-16T15:18:52;12.50;99.90
3275;DHT22;1649;53.672;10.064;2024-02-16T15:21:18;12.40;99.90
3275;DHT22;1649;53.672;10.064;2024-02-16T15:23:44;12.40;99.90
3275;DHT22;1649;53.672;10.064;2024-02-16T15:26:11;12.40;99.90
3275;DHT22;1649;53.672;10.064;2024-02-16T15:28:36;12.40;99.90
3275;DHT22;1649;53.672;10.064;2024-02-16T15:31:03;12.30;99.90
3275;DHT22;1649;53.672;10.064;2024-02-16T15:33:29;12.30;99.90
3275;DHT22;1649;53.672;10.064;2024-02-16T15:35:54;12.30;99.90
3275;DHT22;1649;53.672;10.064;2024-02-16T15:38:22;12.30;99.90
3275;DHT22;1649;53.672;10.064;2024-02-16T15:40:48;12.20;99.90
3275;DHT22;1649;53.672;10.064;2024-02-16T15:43:13;12.30;99.90